sensor_id;sensor_type;location;lat;lon;timestamp;temperature;humidity
66096;SHT31;53861;53.422;14.530;2023-07-31T00:00:05;15.95;84.62
66096;SHT31;53861;53.422;14.530;2023-07-31T00:02:34;15.93;84.57
66096;SHT31;53861;53.422;14.530;2023-07-31T00:05:02;15.93;84.46
66096;SHT31;53861;53.422;14.530;2023-07-31T00:07:37;15.90;84.91
66096;SHT31;53861;53.422;14.530;2023-07-31T00:10:06;16.00;84.58
66096;SHT31;53861;53.422;14.530;2023-07-31T00:12:33;16.03;84.70
66096;SHT31;53861;53.422;14.530;2023-07-31T00:15:01;16.03;84.83
66096;SHT31;53861;53.422;14.530;2023-07-31T00:17:28;15.99;85.11
66096;SHT31;53861;53.422;14.530;2023-07-31T00:19:55;16.06;84.75
66096;SHT31;53861;53.422;14.530;2023-07-31T00:22:23;16.14;84.93
66096;SHT31;53861;53.422;14.530;2023-07-31T00:24:50;16.13;85.33
66096;SHT31;53861;53.422;14.530;2023-07-31T00:27:19;16.16;83.65
66096;SHT31;53861;53.422;14.530;2023-07-31T00:29:46;16.20;84.79
66096;SHT31;53861;53.422;14.530;2023-07-31T00:32:13;16.20;84.07
66096;SHT31;53861;53.422;14.530;2023-07-31T00:34:41;16.24;84.92
66096;SHT31;53861;53.422;14.530;2023-07-31T00:37:08;16.26;83.85
66096;SHT31;53861;53.422;14.530;2023-07-31T00:39:36;16.12;84.39
66096;SHT31;53861;53.422;14.530;2023-07-31T00:42:03;16.09;84.67
66096;SHT31;53861;53.422;14.530;2023-07-31T00:44:32;16.17;84.36
66096;SHT31;53861;53.422;14.530;2023-07-31T00:46:59;16.21;84.90
66096;SHT31;53861;53.422;14.530;2023-07-31T00:49:29;16.10;84.73
66096;SHT31;53861;53.422;14.530;2023-07-31T00:51:56;16.02;84.87
66096;SHT31;53861;53.422;14.530;2023-07-31T00:54:24;15.96;84.83
66096;SHT31;53861;53.422;14.530;2023-07-31T00:56:52;16.00;85.30
66096;SHT31;53861;53.422;14.530;2023-07-31T00:59:24;16.03;85.10
66096;SHT31;53861;53.422;14.530;2023-07-31T01:01:53;15.82;85.94
66096;SHT31;53861;53.422;14.530;2023-07-31T01:04:21;15.72;86.43
66096;SHT31;53861;53.422;14.530;2023-07-31T01:06:48;15.67;88.15
66096;SHT31;53861;53.422;14.530;2023-07-31T01:09:25;15.62;87.15
66096;SHT31;53861;53.422;14.530;2023-07-31T01:12:00;15.52;87.30
66096;SHT31;53861;53.422;14.530;2023-07-31T01:14:28;15.41;87.34
66096;SHT31;53861;53.422;14.530;2023-07-31T01:17:00;15.46;87.50
66096;SHT31;53861;53.422;14.530;2023-07-31T01:19:27;15.49;87.85
66096;SHT31;53861;53.422;14.530;2023-07-31T01:22:04;15.52;88.19
66096;SHT31;53861;53.422;14.530;2023-07-31T01:24:41;15.42;88.25
66096;SHT31;53861;53.422;14.530;2023-07-31T01:27:15;15.34;88.01
66096;SHT31;53861;53.422;14.530;2023-07-31T01:29:46;15.41;88.69
66096;SHT31;53861;53.422;14.530;2023-07-31T01:32:14;15.36;88.55
66096;SHT31;53861;53.422;14.530;2023-07-31T01:34:43;15.39;88.04
66096;SHT31;53861;53.422;14.530;2023-07-31T01:37:11;15.44;87.28
66096;SHT31;53861;53.422;14.530;2023-07-31T01:39:41;15.35;87.72
66096;SHT31;53861;53.422;14.530;2023-07-31T01:42:08;15.36;88.40
66096;SHT31;53861;53.422;14.530;2023-07-31T01:44:51;15.44;88.91
66096;SHT31;53861;53.422;14.530;2023-07-31T01:47:18;15.39;87.22
66096;SHT31;53861;53.422;14.530;2023-07-31T01:49:45;15.44;87.73
66096;SHT31;53861;53.422;14.530;2023-07-31T01:52:12;15.41;88.43
66096;SHT31;53861;53.422;14.530;2023-07-31T01:54:39;15.48;87.55
66096;SHT31;53861;53.422;14.530;2023-07-31T01:57:07;15.53;86.64
66096;SHT31;53861;53.422;14.530;2023-07-31T01:59:34;15.34;86.43
66096;SHT31;53861;53.422;14.530;2023-07-31T02:02:04;15.34;87.87
66096;SHT31;53861;53.422;14.530;2023-07-31T02:04:32;15.27;87.98
66096;SHT31;53861;53.422;14.530;2023-07-31T02:07:02;15.31;88.89
66096;SHT31;53861;53.422;14.530;2023-07-31T02:09:29;15.31;88.87
66096;SHT31;53861;53.422;14.530;2023-07-31T02:11:56;15.31;89.34
66096;SHT31;53861;53.422;14.530;2023-07-31T02:14:23;15.36;88.43
66096;SHT31;53861;53.422;14.530;2023-07-31T02:16:51;15.38;88.33
66096;SHT31;53861;53.422;14.530;2023-07-31T02:19:19;15.27;88.51
66096;SHT31;53861;53.422;14.530;2023-07-31T02:21:47;15.27;88.64
66096;SHT31;53861;53.422;14.530;2023-07-31T02:24:14;15.22;88.52
66096;SHT31;53861;53.422;14.530;2023-07-31T02:26:43;15.24;89.17
66096;SHT31;53861;53.422;14.530;2023-07-31T02:29:11;15.25;88.71
66096;SHT31;53861;53.422;14.530;2023-07-31T02:31:38;15.31;88.27
66096;SHT31;53861;53.422;14.530;2023-07-31T02:34:05;15.34;88.04
66096;SHT31;53861;53.422;14.530;2023-07-31T02:36:34;15.41;87.71
66096;SHT31;53861;53.422;14.530;2023-07-31T02:39:05;15.32;89.04
66096;SHT31;53861;53.422;14.530;2023-07-31T02:41:32;15.28;88.52
66096;SHT31;53861;53.422;14.530;2023-07-31T02:43:59;15.28;87.60
66096;SHT31;53861;53.422;14.530;2023-07-31T02:46:27;15.30;87.12
66096;SHT31;53861;53.422;14.530;2023-07-31T02:48:54;15.32;87.81
66096;SHT31;53861;53.422;14.530;2023-07-31T02:51:21;15.30;88.46
66096;SHT31;53861;53.422;14.530;2023-07-31T02:53:49;15.24;88.51
66096;SHT31;53861;53.422;14.530;2023-07-31T02:56:17;15.15;88.05
66096;SHT31;53861;53.422;14.530;2023-07-31T02:58:44;15.28;88.07
66096;SHT31;53861;53.422;14.530;2023-07-31T03:01:11;15.30;87.79
66096;SHT31;53861;53.422;14.530;2023-07-31T03:03:47;15.17;89.10
66096;SHT31;53861;53.422;14.530;2023-07-31T03:06:15;15.17;87.94
66096;SHT31;53861;53.422;14.530;2023-07-31T03:08:42;15.10;88.16
66096;SHT31;53861;53.422;14.530;2023-07-31T03:11:10;15.14;87.90
66096;SHT31;53861;53.422;14.530;2023-07-31T03:13:40;15.25;87.99
66096;SHT31;53861;53.422;14.530;2023-07-31T03:16:11;15.30;87.78
66096;SHT31;53861;53.422;14.530;2023-07-31T03:18:41;15.27;87.49
66096;SHT31;53861;53.422;14.530;2023-07-31T03:23:50;15.22;89.55
66096;SHT31;53861;53.422;14.530;2023-07-31T03:26:18;15.20;89.19
66096;SHT31;53861;53.422;14.530;2023-07-31T03:28:46;15.27;88.46
66096;SHT31;53861;53.422;14.530;2023-07-31T03:31:13;15.18;88.28
66096;SHT31;53861;53.422;14.530;2023-07-31T03:33:40;15.24;88.76
66096;SHT31;53861;53.422;14.530;2023-07-31T03:36:07;15.24;88.64
66096;SHT31;53861;53.422;14.530;2023-07-31T03:38:35;15.25;88.84
66096;SHT31;53861;53.422;14.530;2023-07-31T03:41:08;15.27;89.79
66096;SHT31;53861;53.422;14.530;2023-07-31T03:43:37;15.35;88.74
66096;SHT31;53861;53.422;14.530;2023-07-31T03:46:04;15.39;89.29
66096;SHT31;53861;53.422;14.530;2023-07-31T03:48:34;15.51;88.32
66096;SHT31;53861;53.422;14.530;2023-07-31T03:51:01;15.56;88.00
66096;SHT31;53861;53.422;14.530;2023-07-31T03:53:29;15.52;87.73
66096;SHT31;53861;53.422;14.530;2023-07-31T03:55:56;15.56;87.53
66096;SHT31;53861;53.422;14.530;2023-07-31T03:58:23;15.45;88.09
66096;SHT31;53861;53.422;14.530;2023-07-31T04:00:51;15.53;88.02
66096;SHT31;53861;53.422;14.530;2023-07-31T04:03:24;15.61;87.90
66096;SHT31;53861;53.422;14.530;2023-07-31T04:05:53;15.58;88.25
66096;SHT31;53861;53.422;14.530;2023-07-31T04:08:20;15.66;88.19
66096;SHT31;53861;53.422;14.530;2023-07-31T04:10:48;15.69;88.35
66096;SHT31;53861;53.422;14.530;2023-07-31T04:13:15;15.53;88.54
66096;SHT31;53861;53.422;14.530;2023-07-31T04:15:42;15.62;88.54
66096;SHT31;53861;53.422;14.530;2023-07-31T04:18:19;15.62;88.34
66096;SHT31;53861;53.422;14.530;2023-07-31T04:20:46;15.69;88.76
66096;SHT31;53861;53.422;14.530;2023-07-31T04:23:13;15.69;88.70
66096;SHT31;53861;53.422;14.530;2023-07-31T04:25:40;15.56;88.74
66096;SHT31;53861;53.422;14.530;2023-07-31T04:28:07;15.62;89.06
66096;SHT31;53861;53.422;14.530;2023-07-31T04:30:34;15.70;89.13
66096;SHT31;53861;53.422;14.530;2023-07-31T04:33:04;15.63;89.06
66096;SHT31;53861;53.422;14.530;2023-07-31T04:35:32;15.66;90.04
66096;SHT31;53861;53.422;14.530;2023-07-31T04:37:59;15.56;90.01
66096;SHT31;53861;53.422;14.530;2023-07-31T04:40:27;15.75;89.72
66096;SHT31;53861;53.422;14.530;2023-07-31T04:42:54;15.89;90.18
66096;SHT31;53861;53.422;14.530;2023-07-31T04:45:22;15.79;89.22
66096;SHT31;53861;53.422;14.530;2023-07-31T04:48:03;15.79;91.00
66096;SHT31;53861;53.422;14.530;2023-07-31T04:50:30;15.85;91.07
66096;SHT31;53861;53.422;14.530;2023-07-31T04:52:58;15.89;90.45
66096;SHT31;53861;53.422;14.530;2023-07-31T04:55:28;15.90;90.26
66096;SHT31;53861;53.422;14.530;2023-07-31T04:57:55;15.85;90.23
66096;SHT31;53861;53.422;14.530;2023-07-31T05:00:22;15.96;89.55
66096;SHT31;53861;53.422;14.530;2023-07-31T05:02:50;16.06;89.93
66096;SHT31;53861;53.422;14.530;2023-07-31T05:05:19;16.14;88.93
66096;SHT31;53861;53.422;14.530;2023-07-31T05:07:47;16.18;88.61
66096;SHT31;53861;53.422;14.530;2023-07-31T05:10:15;16.38;90.01
66096;SHT31;53861;53.422;14.530;2023-07-31T05:12:43;16.37;87.42
66096;SHT31;53861;53.422;14.530;2023-07-31T05:15:13;16.50;88.04
66096;SHT31;53861;53.422;14.530;2023-07-31T05:17:40;16.64;89.11
66096;SHT31;53861;53.422;14.530;2023-07-31T05:20:08;16.74;87.65
66096;SHT31;53861;53.422;14.530;2023-07-31T05:22:36;16.82;88.47
66096;SHT31;53861;53.422;14.530;2023-07-31T05:25:04;16.82;88.14
66096;SHT31;53861;53.422;14.530;2023-07-31T05:27:36;16.89;86.11
66096;SHT31;53861;53.422;14.530;2023-07-31T05:30:06;16.69;87.75
66096;SHT31;53861;53.422;14.530;2023-07-31T05:32:34;16.64;88.87
66096;SHT31;53861;53.422;14.530;2023-07-31T05:35:03;16.67;86.96
66096;SHT31;53861;53.422;14.530;2023-07-31T05:37:35;16.48;87.24
66096;SHT31;53861;53.422;14.530;2023-07-31T05:40:09;16.54;87.12
66096;SHT31;53861;53.422;14.530;2023-07-31T05:42:37;16.63;87.64
66096;SHT31;53861;53.422;14.530;2023-07-31T05:45:08;16.88;86.17
66096;SHT31;53861;53.422;14.530;2023-07-31T05:47:52;16.94;87.13
66096;SHT31;53861;53.422;14.530;2023-07-31T05:50:19;16.88;86.70
66096;SHT31;53861;53.422;14.530;2023-07-31T05:52:49;16.69;86.89
66096;SHT31;53861;53.422;14.530;2023-07-31T05:55:17;16.68;87.61
66096;SHT31;53861;53.422;14.530;2023-07-31T05:57:45;16.84;87.50
66096;SHT31;53861;53.422;14.530;2023-07-31T06:00:13;16.95;87.51
66096;SHT31;53861;53.422;14.530;2023-07-31T06:02:40;16.88;86.39
66096;SHT31;53861;53.422;14.530;2023-07-31T06:05:08;16.98;86.75
66096;SHT31;53861;53.422;14.530;2023-07-31T06:07:35;17.15;85.99
66096;SHT31;53861;53.422;14.530;2023-07-31T06:10:05;17.38;86.16
66096;SHT31;53861;53.422;14.530;2023-07-31T06:12:36;17.23;85.05
66096;SHT31;53861;53.422;14.530;2023-07-31T06:18:17;17.50;84.50
66096;SHT31;53861;53.422;14.530;2023-07-31T06:20:49;17.36;85.50
66096;SHT31;53861;53.422;14.530;2023-07-31T06:23:22;17.50;85.02
66096;SHT31;53861;53.422;14.530;2023-07-31T06:25:50;17.62;84.37
66096;SHT31;53861;53.422;14.530;2023-07-31T06:28:16;17.76;84.36
66096;SHT31;53861;53.422;14.530;2023-07-31T06:30:43;17.67;84.20
66096;SHT31;53861;53.422;14.530;2023-07-31T06:33:10;17.83;83.29
66096;SHT31;53861;53.422;14.530;2023-07-31T06:35:39;17.73;84.90
66096;SHT31;53861;53.422;14.530;2023-07-31T06:38:06;17.86;83.76
66096;SHT31;53861;53.422;14.530;2023-07-31T06:40:33;17.86;84.57
66096;SHT31;53861;53.422;14.530;2023-07-31T06:43:00;18.04;84.10
66096;SHT31;53861;53.422;14.530;2023-07-31T06:45:32;18.28;82.57
66096;SHT31;53861;53.422;14.530;2023-07-31T06:47:59;18.34;82.15
66096;SHT31;53861;53.422;14.530;2023-07-31T06:50:27;18.48;81.67
66096;SHT31;53861;53.422;14.530;2023-07-31T06:52:55;18.30;82.01
66096;SHT31;53861;53.422;14.530;2023-07-31T06:55:22;18.58;80.87
66096;SHT31;53861;53.422;14.530;2023-07-31T06:57:50;18.76;81.96
66096;SHT31;53861;53.422;14.530;2023-07-31T07:00:17;18.93;80.28
66096;SHT31;53861;53.422;14.530;2023-07-31T07:02:44;18.96;79.79
66096;SHT31;53861;53.422;14.530;2023-07-31T07:05:13;18.89;80.18
66096;SHT31;53861;53.422;14.530;2023-07-31T07:07:40;18.85;80.80
66096;SHT31;53861;53.422;14.530;2023-07-31T07:10:08;18.49;80.76
66096;SHT31;53861;53.422;14.530;2023-07-31T07:12:35;19.09;80.27
66096;SHT31;53861;53.422;14.530;2023-07-31T07:15:03;19.81;77.10
66096;SHT31;53861;53.422;14.530;2023-07-31T07:17:30;19.89;77.86
66096;SHT31;53861;53.422;14.530;2023-07-31T07:19:57;19.94;76.43
66096;SHT31;53861;53.422;14.530;2023-07-31T07:22:26;19.67;77.39
66096;SHT31;53861;53.422;14.530;2023-07-31T07:24:53;19.61;76.83
66096;SHT31;53861;53.422;14.530;2023-07-31T07:27:21;19.74;77.25
66096;SHT31;53861;53.422;14.530;2023-07-31T07:29:49;20.21;75.36
66096;SHT31;53861;53.422;14.530;2023-07-31T07:32:16;20.84;75.21
66096;SHT31;53861;53.422;14.530;2023-07-31T07:34:44;20.90;72.87
66096;SHT31;53861;53.422;14.530;2023-07-31T07:37:11;21.26;74.26
66096;SHT31;53861;53.422;14.530;2023-07-31T07:39:38;20.99;72.20
66096;SHT31;53861;53.422;14.530;2023-07-31T07:42:05;21.52;71.20
66096;SHT31;53861;53.422;14.530;2023-07-31T07:44:33;21.54;72.99
66096;SHT31;53861;53.422;14.530;2023-07-31T07:47:00;20.83;72.77
66096;SHT31;53861;53.422;14.530;2023-07-31T07:49:27;21.26;72.62
66096;SHT31;53861;53.422;14.530;2023-07-31T07:51:54;21.04;73.59
66096;SHT31;53861;53.422;14.530;2023-07-31T07:54:21;21.57;71.06
66096;SHT31;53861;53.422;14.530;2023-07-31T07:56:48;21.74;72.38
66096;SHT31;53861;53.422;14.530;2023-07-31T07:59:15;21.71;70.48
66096;SHT31;53861;53.422;14.530;2023-07-31T08:01:44;21.82;71.09
66096;SHT31;53861;53.422;14.530;2023-07-31T08:04:11;21.34;71.33
66096;SHT31;53861;53.422;14.530;2023-07-31T08:06:38;21.17;72.30
66096;SHT31;53861;53.422;14.530;2023-07-31T08:09:05;20.83;72.70
66096;SHT31;53861;53.422;14.530;2023-07-31T08:11:34;20.05;75.05
66096;SHT31;53861;53.422;14.530;2023-07-31T08:14:01;20.50;73.40
66096;SHT31;53861;53.422;14.530;2023-07-31T08:16:28;20.26;74.45
66096;SHT31;53861;53.422;14.530;2023-07-31T08:18:56;20.08;74.82
66096;SHT31;53861;53.422;14.530;2023-07-31T08:21:23;20.79;73.83
66096;SHT31;53861;53.422;14.530;2023-07-31T08:23:50;21.11;72.88
66096;SHT31;53861;53.422;14.530;2023-07-31T08:26:17;21.52;73.49
66096;SHT31;53861;53.422;14.530;2023-07-31T08:28:44;22.32;70.30
66096;SHT31;53861;53.422;14.530;2023-07-31T08:31:11;22.68;70.22
66096;SHT31;53861;53.422;14.530;2023-07-31T08:33:38;21.85;70.86
66096;SHT31;53861;53.422;14.530;2023-07-31T08:36:06;22.23;70.70
66096;SHT31;53861;53.422;14.530;2023-07-31T08:38:33;21.92;71.11
66096;SHT31;53861;53.422;14.530;2023-07-31T08:41:02;22.15;71.23
66096;SHT31;53861;53.422;14.530;2023-07-31T08:43:29;22.03;72.28
66096;SHT31;53861;53.422;14.530;2023-07-31T08:45:57;22.36;70.99
66096;SHT31;53861;53.422;14.530;2023-07-31T08:48:24;22.46;70.70
66096;SHT31;53861;53.422;14.530;2023-07-31T08:50:51;22.17;70.41
66096;SHT31;53861;53.422;14.530;2023-07-31T08:53:19;22.43;69.51
66096;SHT31;53861;53.422;14.530;2023-07-31T08:55:47;23.46;67.72
66096;SHT31;53861;53.422;14.530;2023-07-31T08:58:15;23.73;68.45
66096;SHT31;53861;53.422;14.530;2023-07-31T09:00:42;22.73;67.91
66096;SHT31;53861;53.422;14.530;2023-07-31T09:03:12;23.11;66.91
66096;SHT31;53861;53.422;14.530;2023-07-31T09:05:41;24.34;69.37
66096;SHT31;53861;53.422;14.530;2023-07-31T09:08:09;22.35;68.37
66096;SHT31;53861;53.422;14.530;2023-07-31T09:10:40;23.07;67.60
66096;SHT31;53861;53.422;14.530;2023-07-31T09:13:07;22.43;68.91
66096;SHT31;53861;53.422;14.530;2023-07-31T09:15:35;22.15;69.15
66096;SHT31;53861;53.422;14.530;2023-07-31T09:18:02;22.95;71.81
66096;SHT31;53861;53.422;14.530;2023-07-31T09:20:29;24.06;67.25
66096;SHT31;53861;53.422;14.530;2023-07-31T09:22:58;24.23;63.45
66096;SHT31;53861;53.422;14.530;2023-07-31T09:25:31;24.87;66.66
66096;SHT31;53861;53.422;14.530;2023-07-31T09:28:00;24.80;63.29
66096;SHT31;53861;53.422;14.530;2023-07-31T09:30:27;24.94;64.63
66096;SHT31;53861;53.422;14.530;2023-07-31T09:33:00;25.39;61.29
66096;SHT31;53861;53.422;14.530;2023-07-31T09:35:27;24.68;68.41
66096;SHT31;53861;53.422;14.530;2023-07-31T09:37:55;24.16;65.35
66096;SHT31;53861;53.422;14.530;2023-07-31T09:40:26;23.35;66.57
66096;SHT31;53861;53.422;14.530;2023-07-31T09:42:54;22.77;69.23
66096;SHT31;53861;53.422;14.530;2023-07-31T09:45:24;23.65;69.15
66096;SHT31;53861;53.422;14.530;2023-07-31T09:47:51;23.98;67.19
66096;SHT31;53861;53.422;14.530;2023-07-31T09:50:19;24.21;65.77
66096;SHT31;53861;53.422;14.530;2023-07-31T09:52:46;23.34;66.37
66096;SHT31;53861;53.422;14.530;2023-07-31T09:55:13;22.76;70.03
66096;SHT31;53861;53.422;14.530;2023-07-31T09:57:41;22.10;70.54
66096;SHT31;53861;53.422;14.530;2023-07-31T10:00:08;22.10;70.91
66096;SHT31;53861;53.422;14.530;2023-07-31T10:02:37;22.59;68.58
66096;SHT31;53861;53.422;14.530;2023-07-31T10:05:05;22.35;67.99
66096;SHT31;53861;53.422;14.530;2023-07-31T10:07:34;23.48;67.57
66096;SHT31;53861;53.422;14.530;2023-07-31T10:10:03;24.33;66.03
66096;SHT31;53861;53.422;14.530;2023-07-31T10:12:30;24.74;64.77
66096;SHT31;53861;53.422;14.530;2023-07-31T10:14:58;23.98;65.55
66096;SHT31;53861;53.422;14.530;2023-07-31T10:17:26;22.73;67.43
66096;SHT31;53861;53.422;14.530;2023-07-31T10:19:54;22.43;68.14
66096;SHT31;53861;53.422;14.530;2023-07-31T10:22:23;22.59;69.22
66096;SHT31;53861;53.422;14.530;2023-07-31T10:24:50;22.39;66.18
66096;SHT31;53861;53.422;14.530;2023-07-31T10:27:19;22.29;67.64
66096;SHT31;53861;53.422;14.530;2023-07-31T10:29:46;22.10;67.97
66096;SHT31;53861;53.422;14.530;2023-07-31T10:32:15;22.43;68.20
66096;SHT31;53861;53.422;14.530;2023-07-31T10:34:43;22.66;69.05
66096;SHT31;53861;53.422;14.530;2023-07-31T10:37:21;22.88;69.06
66096;SHT31;53861;53.422;14.530;2023-07-31T10:39:55;22.57;69.80
66096;SHT31;53861;53.422;14.530;2023-07-31T10:42:27;22.57;70.26
66096;SHT31;53861;53.422;14.530;2023-07-31T10:44:55;23.19;67.73
66096;SHT31;53861;53.422;14.530;2023-07-31T10:47:22;24.03;64.63
66096;SHT31;53861;53.422;14.530;2023-07-31T10:49:49;23.76;65.48
66096;SHT31;53861;53.422;14.530;2023-07-31T10:52:19;23.98;66.72
66096;SHT31;53861;53.422;14.530;2023-07-31T10:54:49;23.88;66.27
66096;SHT31;53861;53.422;14.530;2023-07-31T10:57:20;23.27;67.44
66096;SHT31;53861;53.422;14.530;2023-07-31T10:59:47;23.62;66.30
66096;SHT31;53861;53.422;14.530;2023-07-31T11:02:23;23.03;68.29
66096;SHT31;53861;53.422;14.530;2023-07-31T11:05:05;24.00;65.95
66096;SHT31;53861;53.422;14.530;2023-07-31T11:07:46;23.79;65.76
66096;SHT31;53861;53.422;14.530;2023-07-31T11:10:17;22.74;68.97
66096;SHT31;53861;53.422;14.530;2023-07-31T11:12:44;22.15;71.18
66096;SHT31;53861;53.422;14.530;2023-07-31T11:15:12;21.64;72.08
66096;SHT31;53861;53.422;14.530;2023-07-31T11:17:39;21.23;74.87
66096;SHT31;53861;53.422;14.530;2023-07-31T11:20:07;20.32;80.91
66096;SHT31;53861;53.422;14.530;2023-07-31T11:22:34;19.82;83.08
66096;SHT31;53861;53.422;14.530;2023-07-31T11:25:01;19.61;82.78
66096;SHT31;53861;53.422;14.530;2023-07-31T11:27:29;19.58;82.54
66096;SHT31;53861;53.422;14.530;2023-07-31T11:30:00;19.58;84.26
66096;SHT31;53861;53.422;14.530;2023-07-31T11:32:27;19.91;82.78
66096;SHT31;53861;53.422;14.530;2023-07-31T11:34:54;20.19;84.65
66096;SHT31;53861;53.422;14.530;2023-07-31T11:37:21;20.01;84.13
66096;SHT31;53861;53.422;14.530;2023-07-31T11:39:58;20.53;82.43
66096;SHT31;53861;53.422;14.530;2023-07-31T11:42:25;20.22;82.57
66096;SHT31;53861;53.422;14.530;2023-07-31T11:44:53;19.95;83.25
66096;SHT31;53861;53.422;14.530;2023-07-31T11:47:20;20.33;84.20
66096;SHT31;53861;53.422;14.530;2023-07-31T11:49:47;19.87;84.35
66096;SHT31;53861;53.422;14.530;2023-07-31T11:52:14;19.71;84.17
66096;SHT31;53861;53.422;14.530;2023-07-31T11:54:41;19.81;83.78
66096;SHT31;53861;53.422;14.530;2023-07-31T11:57:08;19.89;83.01
66096;SHT31;53861;53.422;14.530;2023-07-31T11:59:35;20.43;83.29
66096;SHT31;53861;53.422;14.530;2023-07-31T12:02:04;20.29;83.50
66096;SHT31;53861;53.422;14.530;2023-07-31T12:04:31;20.29;83.91
66096;SHT31;53861;53.422;14.530;2023-07-31T12:06:59;19.70;84.07
66096;SHT31;53861;53.422;14.530;2023-07-31T12:09:26;19.63;84.17
66096;SHT31;53861;53.422;14.530;2023-07-31T12:11:53;19.44;84.27
66096;SHT31;53861;53.422;14.530;2023-07-31T12:14:20;19.26;85.65
66096;SHT31;53861;53.422;14.530;2023-07-31T12:16:48;18.95;86.82
66096;SHT31;53861;53.422;14.530;2023-07-31T12:19:20;18.54;88.77
66096;SHT31;53861;53.422;14.530;2023-07-31T12:21:47;18.92;88.21
66096;SHT31;53861;53.422;14.530;2023-07-31T12:24:14;19.47;86.90
66096;SHT31;53861;53.422;14.530;2023-07-31T12:26:42;19.91;84.86
66096;SHT31;53861;53.422;14.530;2023-07-31T12:29:11;20.28;85.26
66096;SHT31;53861;53.422;14.530;2023-07-31T12:31:40;20.36;83.09
66096;SHT31;53861;53.422;14.530;2023-07-31T12:34:15;20.05;85.21
66096;SHT31;53861;53.422;14.530;2023-07-31T12:36:43;19.30;86.59
66096;SHT31;53861;53.422;14.530;2023-07-31T12:39:10;19.36;87.24
66096;SHT31;53861;53.422;14.530;2023-07-31T12:41:37;19.43;87.01
66096;SHT31;53861;53.422;14.530;2023-07-31T12:44:04;19.64;86.28
66096;SHT31;53861;53.422;14.530;2023-07-31T12:46:31;19.64;86.09
66096;SHT31;53861;53.422;14.530;2023-07-31T12:48:58;20.08;86.15
66096;SHT31;53861;53.422;14.530;2023-07-31T12:51:25;20.42;84.52
66096;SHT31;53861;53.422;14.530;2023-07-31T12:53:54;20.43;86.23
66096;SHT31;53861;53.422;14.530;2023-07-31T12:56:20;19.61;85.00
66096;SHT31;53861;53.422;14.530;2023-07-31T12:58:47;19.56;85.85
66096;SHT31;53861;53.422;14.530;2023-07-31T13:01:14;19.30;85.60
66096;SHT31;53861;53.422;14.530;2023-07-31T13:03:41;19.33;86.07
66096;SHT31;53861;53.422;14.530;2023-07-31T13:06:08;19.10;87.34
66096;SHT31;53861;53.422;14.530;2023-07-31T13:08:36;19.05;87.52
66096;SHT31;53861;53.422;14.530;2023-07-31T13:11:05;19.27;87.63
66096;SHT31;53861;53.422;14.530;2023-07-31T13:13:31;19.34;88.56
66096;SHT31;53861;53.422;14.530;2023-07-31T13:15:58;19.68;88.58
66096;SHT31;53861;53.422;14.530;2023-07-31T13:18:25;19.67;86.24
66096;SHT31;53861;53.422;14.530;2023-07-31T13:20:52;20.17;86.25
66096;SHT31;53861;53.422;14.530;2023-07-31T13:23:19;20.50;85.61
66096;SHT31;53861;53.422;14.530;2023-07-31T13:25:47;20.50;85.01
66096;SHT31;53861;53.422;14.530;2023-07-31T13:28:15;20.52;83.06
66096;SHT31;53861;53.422;14.530;2023-07-31T13:30:42;20.46;83.02
66096;SHT31;53861;53.422;14.530;2023-07-31T13:33:09;20.69;82.64
66096;SHT31;53861;53.422;14.530;2023-07-31T13:35:36;20.99;80.25
66096;SHT31;53861;53.422;14.530;2023-07-31T13:38:03;21.34;78.48
66096;SHT31;53861;53.422;14.530;2023-07-31T13:40:31;21.47;79.08
66096;SHT31;53861;53.422;14.530;2023-07-31T13:42:58;21.66;78.95
66096;SHT31;53861;53.422;14.530;2023-07-31T13:45:26;21.77;77.67
66096;SHT31;53861;53.422;14.530;2023-07-31T13:47:53;21.74;76.71
66096;SHT31;53861;53.422;14.530;2023-07-31T13:50:20;21.79;78.20
66096;SHT31;53861;53.422;14.530;2023-07-31T13:52:48;21.62;78.46
66096;SHT31;53861;53.422;14.530;2023-07-31T13:55:17;22.12;74.55
66096;SHT31;53861;53.422;14.530;2023-07-31T13:57:44;22.59;76.91
66096;SHT31;53861;53.422;14.530;2023-07-31T14:00:12;23.17;74.36
66096;SHT31;53861;53.422;14.530;2023-07-31T14:02:41;22.94;72.63
66096;SHT31;53861;53.422;14.530;2023-07-31T14:05:08;22.44;74.15
66096;SHT31;53861;53.422;14.530;2023-07-31T14:07:35;21.89;74.62
66096;SHT31;53861;53.422;14.530;2023-07-31T14:10:02;21.72;76.96
66096;SHT31;53861;53.422;14.530;2023-07-31T14:12:30;21.47;75.97
66096;SHT31;53861;53.422;14.530;2023-07-31T14:14:57;21.41;77.85
66096;SHT31;53861;53.422;14.530;2023-07-31T14:17:24;21.14;79.70
66096;SHT31;53861;53.422;14.530;2023-07-31T14:19:54;20.76;79.87
66096;SHT31;53861;53.422;14.530;2023-07-31T14:22:29;20.55;80.05
66096;SHT31;53861;53.422;14.530;2023-07-31T14:24:56;20.75;79.97
66096;SHT31;53861;53.422;14.530;2023-07-31T14:27:23;20.93;79.03
66096;SHT31;53861;53.422;14.530;2023-07-31T14:29:50;20.86;79.18
66096;SHT31;53861;53.422;14.530;2023-07-31T14:32:17;20.80;79.04
66096;SHT31;53861;53.422;14.530;2023-07-31T14:34:43;21.00;80.18
66096;SHT31;53861;53.422;14.530;2023-07-31T14:37:12;21.21;77.48
66096;SHT31;53861;53.422;14.530;2023-07-31T14:39:39;21.17;78.61
66096;SHT31;53861;53.422;14.530;2023-07-31T14:42:06;20.73;79.07
66096;SHT31;53861;53.422;14.530;2023-07-31T14:44:33;20.72;78.32
66096;SHT31;53861;53.422;14.530;2023-07-31T14:47:00;20.66;77.92
66096;SHT31;53861;53.422;14.530;2023-07-31T14:49:27;20.89;77.68
66096;SHT31;53861;53.422;14.530;2023-07-31T14:51:54;21.11;77.58
66096;SHT31;53861;53.422;14.530;2023-07-31T14:54:23;21.42;75.75
66096;SHT31;53861;53.422;14.530;2023-07-31T14:56:50;21.64;74.81
66096;SHT31;53861;53.422;14.530;2023-07-31T14:59:17;21.38;74.43
66096;SHT31;53861;53.422;14.530;2023-07-31T15:01:44;21.06;75.39
66096;SHT31;53861;53.422;14.530;2023-07-31T15:04:11;21.06;75.40
66096;SHT31;53861;53.422;14.530;2023-07-31T15:06:37;21.20;75.94
66096;SHT31;53861;53.422;14.530;2023-07-31T15:09:04;21.51;74.65
66096;SHT31;53861;53.422;14.530;2023-07-31T15:11:33;21.48;74.70
66096;SHT31;53861;53.422;14.530;2023-07-31T15:14:00;21.21;75.14
66096;SHT31;53861;53.422;14.530;2023-07-31T15:16:27;21.01;75.85
66096;SHT31;53861;53.422;14.530;2023-07-31T15:18:54;21.06;76.08
66096;SHT31;53861;53.422;14.530;2023-07-31T15:21:21;20.94;75.88
66096;SHT31;53861;53.422;14.530;2023-07-31T15:23:48;20.97;76.02
66096;SHT31;53861;53.422;14.530;2023-07-31T15:26:15;21.04;75.80